sensor_id;sensor_type;location;lat;lon;timestamp;P1;durP1;ratioP1;P2;durP2;ratioP2
41677;SDS011;27364;49.026;8.712;2022-07-29T00:00:38;4.03;;;3.08;;
41677;SDS011;27364;49.026;8.712;2022-07-29T00:03:04;3.90;;;2.97;;
41677;SDS011;27364;49.026;8.712;2022-07-29T00:05:29;4.82;;;3.13;;
41677;SDS011;27364;49.026;8.712;2022-07-29T00:07:55;5.60;;;3.50;;
41677;SDS011;27364;49.026;8.712;2022-07-29T00:10:20;6.03;;;3.20;;
41677;SDS011;27364;49.026;8.712;2022-07-29T00:12:46;4.07;;;3.22;;
41677;SDS011;27364;49.026;8.712;2022-07-29T00:15:12;4.72;;;3.38;;
41677;SDS011;27364;49.026;8.712;2022-07-29T00:17:38;4.80;;;3.10;;
41677;SDS011;27364;49.026;8.712;2022-07-29T00:20:04;4.88;;;3.08;;
41677;SDS011;27364;49.026;8.712;2022-07-29T00:22:30;5.03;;;3.22;;
41677;SDS011;27364;49.026;8.712;2022-07-29T00:24:55;4.13;;;3.10;;
41677;SDS011;27364;49.026;8.712;2022-07-29T00:27:21;6.22;;;3.58;;
41677;SDS011;27364;49.026;8.712;2022-07-29T00:29:47;6.75;;;3.28;;
41677;SDS011;27364;49.026;8.712;2022-07-29T00:32:12;5.35;;;3.05;;
41677;SDS011;27364;49.026;8.712;2022-07-29T00:34:39;4.85;;;3.47;;
41677;SDS011;27364;49.026;8.712;2022-07-29T00:37:23;5.28;;;2.83;;
41677;SDS011;27364;49.026;8.712;2022-07-29T00:39:49;3.85;;;3.03;;
41677;SDS011;27364;49.026;8.712;2022-07-29T00:42:15;4.53;;;2.90;;
41677;SDS011;27364;49.026;8.712;2022-07-29T00:44:41;5.65;;;3.65;;
41677;SDS011;27364;49.026;8.712;2022-07-29T00:47:07;6.82;;;3.33;;
41677;SDS011;27364;49.026;8.712;2022-07-29T00:49:34;4.30;;;3.28;;
41677;SDS011;27364;49.026;8.712;2022-07-29T00:52:04;6.72;;;3.20;;
41677;SDS011;27364;49.026;8.712;2022-07-29T00:54:30;6.35;;;3.75;;
41677;SDS011;27364;49.026;8.712;2022-07-29T00:56:57;5.13;;;3.13;;
41677;SDS011;27364;49.026;8.712;2022-07-29T00:59:23;5.23;;;2.90;;
41677;SDS011;27364;49.026;8.712;2022-07-29T01:01:50;9.27;;;3.28;;
41677;SDS011;27364;49.026;8.712;2022-07-29T01:04:15;3.92;;;2.90;;
41677;SDS011;27364;49.026;8.712;2022-07-29T01:06:41;3.88;;;2.78;;
41677;SDS011;27364;49.026;8.712;2022-07-29T01:09:07;8.68;;;3.10;;
41677;SDS011;27364;49.026;8.712;2022-07-29T01:11:34;4.47;;;3.30;;
41677;SDS011;27364;49.026;8.712;2022-07-29T01:14:00;5.10;;;3.47;;
41677;SDS011;27364;49.026;8.712;2022-07-29T01:16:38;4.20;;;3.20;;
41677;SDS011;27364;49.026;8.712;2022-07-29T01:22:16;5.55;;;3.55;;
41677;SDS011;27364;49.026;8.712;2022-07-29T01:31:02;6.70;;;3.53;;
41677;SDS011;27364;49.026;8.712;2022-07-29T01:33:29;5.25;;;3.17;;
41677;SDS011;27364;49.026;8.712;2022-07-29T01:36:15;4.20;;;3.35;;
41677;SDS011;27364;49.026;8.712;2022-07-29T01:38:46;5.15;;;3.50;;
41677;SDS011;27364;49.026;8.712;2022-07-29T01:41:43;7.65;;;3.58;;
41677;SDS011;27364;49.026;8.712;2022-07-29T01:46:52;7.85;;;3.75;;
41677;SDS011;27364;49.026;8.712;2022-07-29T01:49:21;7.18;;;3.78;;
41677;SDS011;27364;49.026;8.712;2022-07-29T01:52:00;5.97;;;3.63;;
41677;SDS011;27364;49.026;8.712;2022-07-29T01:54:45;5.68;;;3.75;;
41677;SDS011;27364;49.026;8.712;2022-07-29T01:57:19;4.90;;;3.42;;
41677;SDS011;27364;49.026;8.712;2022-07-29T01:59:50;4.60;;;3.30;;
41677;SDS011;27364;49.026;8.712;2022-07-29T02:02:17;4.53;;;3.50;;
41677;SDS011;27364;49.026;8.712;2022-07-29T02:04:44;5.43;;;4.00;;
41677;SDS011;27364;49.026;8.712;2022-07-29T02:07:13;6.28;;;3.90;;
41677;SDS011;27364;49.026;8.712;2022-07-29T02:09:43;5.60;;;3.90;;
41677;SDS011;27364;49.026;8.712;2022-07-29T02:12:10;5.45;;;3.67;;
41677;SDS011;27364;49.026;8.712;2022-07-29T02:14:42;4.83;;;3.70;;
41677;SDS011;27364;49.026;8.712;2022-07-29T02:17:12;4.55;;;3.30;;
41677;SDS011;27364;49.026;8.712;2022-07-29T02:19:41;6.38;;;3.92;;
41677;SDS011;27364;49.026;8.712;2022-07-29T02:22:09;6.72;;;3.63;;
41677;SDS011;27364;49.026;8.712;2022-07-29T02:24:36;4.43;;;3.55;;
41677;SDS011;27364;49.026;8.712;2022-07-29T02:27:06;6.80;;;3.65;;
41677;SDS011;27364;49.026;8.712;2022-07-29T02:31:59;4.53;;;3.57;;
41677;SDS011;27364;49.026;8.712;2022-07-29T02:34:26;4.93;;;3.53;;
41677;SDS011;27364;49.026;8.712;2022-07-29T02:36:54;4.68;;;3.65;;
41677;SDS011;27364;49.026;8.712;2022-07-29T02:39:20;4.95;;;3.70;;
41677;SDS011;27364;49.026;8.712;2022-07-29T02:41:54;6.53;;;3.65;;
41677;SDS011;27364;49.026;8.712;2022-07-29T02:44:24;4.38;;;3.40;;
41677;SDS011;27364;49.026;8.712;2022-07-29T02:46:51;5.15;;;3.72;;
41677;SDS011;27364;49.026;8.712;2022-07-29T02:49:29;6.78;;;4.05;;
41677;SDS011;27364;49.026;8.712;2022-07-29T02:52:22;6.40;;;4.18;;
41677;SDS011;27364;49.026;8.712;2022-07-29T02:54:56;5.07;;;3.67;;
41677;SDS011;27364;49.026;8.712;2022-07-29T02:58:10;6.25;;;4.07;;
41677;SDS011;27364;49.026;8.712;2022-07-29T03:00:25;6.15;;;4.47;;
41677;SDS011;27364;49.026;8.712;2022-07-29T03:02:53;6.95;;;4.15;;
41677;SDS011;27364;49.026;8.712;2022-07-29T03:05:21;6.15;;;4.07;;
41677;SDS011;27364;49.026;8.712;2022-07-29T03:07:50;6.68;;;4.45;;
41677;SDS011;27364;49.026;8.712;2022-07-29T03:10:25;5.90;;;4.30;;
41677;SDS011;27364;49.026;8.712;2022-07-29T03:12:51;5.40;;;3.92;;
41677;SDS011;27364;49.026;8.712;2022-07-29T03:15:18;6.30;;;3.78;;
41677;SDS011;27364;49.026;8.712;2022-07-29T03:17:44;6.65;;;3.90;;
41677;SDS011;27364;49.026;8.712;2022-07-29T03:20:11;6.82;;;3.78;;
41677;SDS011;27364;49.026;8.712;2022-07-29T03:22:40;6.70;;;4.32;;
41677;SDS011;27364;49.026;8.712;2022-07-29T03:25:15;7.93;;;4.13;;
41677;SDS011;27364;49.026;8.712;2022-07-29T03:27:42;5.78;;;4.03;;
41677;SDS011;27364;49.026;8.712;2022-07-29T03:30:09;5.40;;;4.10;;
41677;SDS011;27364;49.026;8.712;2022-07-29T03:32:35;6.55;;;4.22;;
41677;SDS011;27364;49.026;8.712;2022-07-29T03:35:01;4.95;;;3.60;;
41677;SDS011;27364;49.026;8.712;2022-07-29T03:37:28;5.10;;;3.67;;
41677;SDS011;27364;49.026;8.712;2022-07-29T03:39:55;6.60;;;3.90;;
41677;SDS011;27364;49.026;8.712;2022-07-29T03:42:26;7.13;;;3.85;;
41677;SDS011;27364;49.026;8.712;2022-07-29T03:45:00;5.47;;;3.97;;
41677;SDS011;27364;49.026;8.712;2022-07-29T03:47:30;4.13;;;3.25;;
41677;SDS011;27364;49.026;8.712;2022-07-29T03:49:59;5.22;;;3.70;;
41677;SDS011;27364;49.026;8.712;2022-07-29T03:52:29;5.53;;;3.90;;
41677;SDS011;27364;49.026;8.712;2022-07-29T03:54:55;5.53;;;4.28;;
41677;SDS011;27364;49.026;8.712;2022-07-29T03:57:23;7.97;;;4.57;;
41677;SDS011;27364;49.026;8.712;2022-07-29T03:59:52;8.48;;;4.95;;
41677;SDS011;27364;49.026;8.712;2022-07-29T04:02:18;7.18;;;4.85;;
41677;SDS011;27364;49.026;8.712;2022-07-29T04:04:44;8.75;;;5.80;;
41677;SDS011;27364;49.026;8.712;2022-07-29T04:07:13;8.48;;;5.50;;
41677;SDS011;27364;49.026;8.712;2022-07-29T04:09:39;8.65;;;5.43;;
41677;SDS011;27364;49.026;8.712;2022-07-29T04:12:06;8.13;;;5.57;;
41677;SDS011;27364;49.026;8.712;2022-07-29T04:14:32;10.30;;;6.03;;
41677;SDS011;27364;49.026;8.712;2022-07-29T04:16:59;11.40;;;6.93;;
41677;SDS011;27364;49.026;8.712;2022-07-29T04:19:25;10.20;;;6.10;;
41677;SDS011;27364;49.026;8.712;2022-07-29T04:21:51;12.02;;;6.40;;
41677;SDS011;27364;49.026;8.712;2022-07-29T04:24:16;11.32;;;6.18;;
41677;SDS011;27364;49.026;8.712;2022-07-29T04:26:42;8.70;;;5.75;;
41677;SDS011;27364;49.026;8.712;2022-07-29T04:29:08;8.05;;;5.43;;
41677;SDS011;27364;49.026;8.712;2022-07-29T04:31:34;8.82;;;6.03;;
41677;SDS011;27364;49.026;8.712;2022-07-29T04:33:59;12.15;;;6.97;;
41677;SDS011;27364;49.026;8.712;2022-07-29T04:36:25;11.95;;;7.65;;
41677;SDS011;27364;49.026;8.712;2022-07-29T04:38:50;13.90;;;8.35;;
41677;SDS011;27364;49.026;8.712;2022-07-29T04:41:16;13.55;;;7.85;;
41677;SDS011;27364;49.026;8.712;2022-07-29T04:43:41;12.48;;;7.32;;
41677;SDS011;27364;49.026;8.712;2022-07-29T04:46:07;14.80;;;8.00;;
41677;SDS011;27364;49.026;8.712;2022-07-29T04:48:32;16.25;;;8.82;;
41677;SDS011;27364;49.026;8.712;2022-07-29T04:50:58;17.70;;;9.45;;
41677;SDS011;27364;49.026;8.712;2022-07-29T04:53:24;20.17;;;10.15;;
41677;SDS011;27364;49.026;8.712;2022-07-29T04:55:51;19.55;;;10.43;;
41677;SDS011;27364;49.026;8.712;2022-07-29T04:58:16;14.90;;;9.10;;
41677;SDS011;27364;49.026;8.712;2022-07-29T05:00:42;17.35;;;9.45;;
41677;SDS011;27364;49.026;8.712;2022-07-29T05:03:07;11.70;;;7.78;;
41677;SDS011;27364;49.026;8.712;2022-07-29T05:05:33;12.18;;;7.38;;
41677;SDS011;27364;49.026;8.712;2022-07-29T05:07:59;14.38;;;7.78;;
41677;SDS011;27364;49.026;8.712;2022-07-29T05:10:24;8.27;;;5.50;;
41677;SDS011;27364;49.026;8.712;2022-07-29T05:12:50;9.80;;;5.53;;
41677;SDS011;27364;49.026;8.712;2022-07-29T05:15:16;10.93;;;6.13;;
41677;SDS011;27364;49.026;8.712;2022-07-29T05:17:42;8.55;;;5.65;;
41677;SDS011;27364;49.026;8.712;2022-07-29T05:20:08;8.57;;;5.38;;
41677;SDS011;27364;49.026;8.712;2022-07-29T05:22:34;6.85;;;5.22;;
41677;SDS011;27364;49.026;8.712;2022-07-29T05:25:00;6.32;;;4.60;;
41677;SDS011;27364;49.026;8.712;2022-07-29T05:27:25;7.15;;;5.07;;
41677;SDS011;27364;49.026;8.712;2022-07-29T05:29:51;8.20;;;5.68;;
41677;SDS011;27364;49.026;8.712;2022-07-29T05:32:16;10.02;;;5.47;;
41677;SDS011;27364;49.026;8.712;2022-07-29T05:34:42;6.53;;;4.47;;
41677;SDS011;27364;49.026;8.712;2022-07-29T05:37:07;6.43;;;4.68;;
41677;SDS011;27364;49.026;8.712;2022-07-29T05:39:33;6.13;;;4.15;;
41677;SDS011;27364;49.026;8.712;2022-07-29T05:41:58;5.75;;;4.05;;
41677;SDS011;27364;49.026;8.712;2022-07-29T05:44:24;6.18;;;3.80;;
41677;SDS011;27364;49.026;8.712;2022-07-29T05:46:50;4.68;;;3.72;;
41677;SDS011;27364;49.026;8.712;2022-07-29T05:49:15;7.55;;;3.60;;
41677;SDS011;27364;49.026;8.712;2022-07-29T05:51:41;5.22;;;3.80;;
41677;SDS011;27364;49.026;8.712;2022-07-29T05:54:06;6.10;;;3.90;;
41677;SDS011;27364;49.026;8.712;2022-07-29T05:56:32;6.63;;;3.95;;
41677;SDS011;27364;49.026;8.712;2022-07-29T05:58:57;6.13;;;3.95;;
41677;SDS011;27364;49.026;8.712;2022-07-29T06:01:23;5.93;;;4.05;;
41677;SDS011;27364;49.026;8.712;2022-07-29T06:03:49;5.45;;;3.80;;
41677;SDS011;27364;49.026;8.712;2022-07-29T06:06:15;5.93;;;4.20;;
41677;SDS011;27364;49.026;8.712;2022-07-29T06:08:40;5.53;;;4.13;;
41677;SDS011;27364;49.026;8.712;2022-07-29T06:11:06;7.47;;;3.90;;
41677;SDS011;27364;49.026;8.712;2022-07-29T06:13:33;4.60;;;3.65;;
41677;SDS011;27364;49.026;8.712;2022-07-29T06:15:59;6.93;;;3.83;;
41677;SDS011;27364;49.026;8.712;2022-07-29T06:18:25;7.38;;;4.07;;
41677;SDS011;27364;49.026;8.712;2022-07-29T06:20:50;7.13;;;3.88;;
41677;SDS011;27364;49.026;8.712;2022-07-29T06:23:17;5.30;;;4.35;;
41677;SDS011;27364;49.026;8.712;2022-07-29T06:25:43;5.90;;;3.83;;
41677;SDS011;27364;49.026;8.712;2022-07-29T06:28:09;5.32;;;3.83;;
41677;SDS011;27364;49.026;8.712;2022-07-29T06:30:34;7.55;;;3.85;;
41677;SDS011;27364;49.026;8.712;2022-07-29T06:33:00;6.63;;;4.35;;
41677;SDS011;27364;49.026;8.712;2022-07-29T06:35:26;4.85;;;3.75;;
41677;SDS011;27364;49.026;8.712;2022-07-29T06:37:52;6.53;;;4.20;;
41677;SDS011;27364;49.026;8.712;2022-07-29T06:40:18;5.35;;;3.80;;
41677;SDS011;27364;49.026;8.712;2022-07-29T06:43:02;6.75;;;3.85;;
41677;SDS011;27364;49.026;8.712;2022-07-29T06:45:27;5.53;;;4.07;;
41677;SDS011;27364;49.026;8.712;2022-07-29T06:47:53;5.88;;;3.40;;
41677;SDS011;27364;49.026;8.712;2022-07-29T06:50:19;7.07;;;3.88;;
41677;SDS011;27364;49.026;8.712;2022-07-29T06:52:45;6.38;;;3.95;;
41677;SDS011;27364;49.026;8.712;2022-07-29T06:55:10;6.18;;;3.92;;
41677;SDS011;27364;49.026;8.712;2022-07-29T06:57:36;5.63;;;3.80;;
41677;SDS011;27364;49.026;8.712;2022-07-29T07:00:01;5.90;;;3.80;;
41677;SDS011;27364;49.026;8.712;2022-07-29T07:02:29;5.47;;;4.07;;
41677;SDS011;27364;49.026;8.712;2022-07-29T07:04:55;7.70;;;4.15;;
41677;SDS011;27364;49.026;8.712;2022-07-29T07:07:20;5.18;;;3.95;;
41677;SDS011;27364;49.026;8.712;2022-07-29T07:09:46;6.30;;;4.00;;
41677;SDS011;27364;49.026;8.712;2022-07-29T07:12:11;5.35;;;3.75;;
41677;SDS011;27364;49.026;8.712;2022-07-29T07:14:37;5.30;;;3.80;;
41677;SDS011;27364;49.026;8.712;2022-07-29T07:17:04;5.75;;;3.72;;
41677;SDS011;27364;49.026;8.712;2022-07-29T07:19:31;7.80;;;4.18;;
41677;SDS011;27364;49.026;8.712;2022-07-29T07:21:57;4.95;;;3.70;;
41677;SDS011;27364;49.026;8.712;2022-07-29T07:24:23;5.65;;;3.85;;
41677;SDS011;27364;49.026;8.712;2022-07-29T07:26:48;8.57;;;4.20;;
41677;SDS011;27364;49.026;8.712;2022-07-29T07:29:14;5.88;;;3.83;;
41677;SDS011;27364;49.026;8.712;2022-07-29T07:31:39;7.53;;;3.85;;
41677;SDS011;27364;49.026;8.712;2022-07-29T07:34:05;6.15;;;3.80;;
41677;SDS011;27364;49.026;8.712;2022-07-29T07:36:30;5.25;;;3.50;;
41677;SDS011;27364;49.026;8.712;2022-07-29T07:38:56;6.05;;;3.85;;
41677;SDS011;27364;49.026;8.712;2022-07-29T07:41:21;4.93;;;3.50;;
41677;SDS011;27364;49.026;8.712;2022-07-29T07:43:47;6.25;;;3.63;;
41677;SDS011;27364;49.026;8.712;2022-07-29T07:46:13;8.45;;;3.65;;
41677;SDS011;27364;49.026;8.712;2022-07-29T07:48:39;4.50;;;3.28;;
41677;SDS011;27364;49.026;8.712;2022-07-29T07:51:05;5.03;;;3.42;;
41677;SDS011;27364;49.026;8.712;2022-07-29T07:53:32;5.90;;;3.30;;
41677;SDS011;27364;49.026;8.712;2022-07-29T07:55:58;5.43;;;3.03;;
41677;SDS011;27364;49.026;8.712;2022-07-29T07:58:23;5.15;;;2.85;;
41677;SDS011;27364;49.026;8.712;2022-07-29T08:00:49;4.55;;;3.08;;
41677;SDS011;27364;49.026;8.712;2022-07-29T08:03:14;6.20;;;3.05;;
41677;SDS011;27364;49.026;8.712;2022-07-29T08:05:40;5.07;;;3.08;;
41677;SDS011;27364;49.026;8.712;2022-07-29T08:08:06;5.82;;;3.20;;
41677;SDS011;27364;49.026;8.712;2022-07-29T08:10:32;8.48;;;3.17;;
41677;SDS011;27364;49.026;8.712;2022-07-29T08:13:16;5.35;;;3.10;;
41677;SDS011;27364;49.026;8.712;2022-07-29T08:15:42;4.45;;;2.95;;
41677;SDS011;27364;49.026;8.712;2022-07-29T08:18:08;5.07;;;3.15;;
41677;SDS011;27364;49.026;8.712;2022-07-29T08:20:34;7.05;;;3.28;;
41677;SDS011;27364;49.026;8.712;2022-07-29T08:23:00;5.30;;;3.30;;
41677;SDS011;27364;49.026;8.712;2022-07-29T08:25:30;4.22;;;3.05;;
41677;SDS011;27364;49.026;8.712;2022-07-29T08:28:00;9.90;;;3.43;;
41677;SDS011;27364;49.026;8.712;2022-07-29T08:30:29;6.57;;;3.20;;
41677;SDS011;27364;49.026;8.712;2022-07-29T08:32:54;4.28;;;2.90;;
41677;SDS011;27364;49.026;8.712;2022-07-29T08:35:21;7.78;;;3.22;;
41677;SDS011;27364;49.026;8.712;2022-07-29T08:37:48;5.13;;;3.40;;
41677;SDS011;27364;49.026;8.712;2022-07-29T08:40:13;5.65;;;3.13;;
41677;SDS011;27364;49.026;8.712;2022-07-29T08:42:39;5.30;;;2.90;;
41677;SDS011;27364;49.026;8.712;2022-07-29T08:45:05;6.05;;;3.05;;
41677;SDS011;27364;49.026;8.712;2022-07-29T08:47:31;6.45;;;3.20;;
41677;SDS011;27364;49.026;8.712;2022-07-29T08:49:58;5.57;;;3.33;;
41677;SDS011;27364;49.026;8.712;2022-07-29T08:52:25;5.95;;;3.75;;
41677;SDS011;27364;49.026;8.712;2022-07-29T08:54:51;4.18;;;2.72;;
41677;SDS011;27364;49.026;8.712;2022-07-29T08:57:18;5.40;;;3.10;;
41677;SDS011;27364;49.026;8.712;2022-07-29T08:59:46;5.25;;;3.20;;
41677;SDS011;27364;49.026;8.712;2022-07-29T09:04:44;9.85;;;3.00;;
41677;SDS011;27364;49.026;8.712;2022-07-29T09:07:10;8.80;;;3.63;;
41677;SDS011;27364;49.026;8.712;2022-07-29T09:09:39;9.18;;;3.15;;
41677;SDS011;27364;49.026;8.712;2022-07-29T09:12:05;4.15;;;2.78;;
41677;SDS011;27364;49.026;8.712;2022-07-29T09:14:33;4.07;;;3.00;;
41677;SDS011;27364;49.026;8.712;2022-07-29T09:16:59;8.55;;;3.25;;
41677;SDS011;27364;49.026;8.712;2022-07-29T09:21:53;4.75;;;2.42;;
41677;SDS011;27364;49.026;8.712;2022-07-29T09:24:26;4.20;;;2.60;;
41677;SDS011;27364;49.026;8.712;2022-07-29T09:27:09;4.75;;;2.80;;
41677;SDS011;27364;49.026;8.712;2022-07-29T09:29:46;6.18;;;2.65;;
41677;SDS011;27364;49.026;8.712;2022-07-29T09:32:12;4.85;;;2.60;;
41677;SDS011;27364;49.026;8.712;2022-07-29T09:34:38;7.63;;;2.47;;
41677;SDS011;27364;49.026;8.712;2022-07-29T09:37:04;6.68;;;2.90;;
41677;SDS011;27364;49.026;8.712;2022-07-29T09:42:02;4.38;;;2.50;;
41677;SDS011;27364;49.026;8.712;2022-07-29T09:44:41;6.68;;;2.50;;
41677;SDS011;27364;49.026;8.712;2022-07-29T09:47:15;5.78;;;2.38;;
41677;SDS011;27364;49.026;8.712;2022-07-29T09:49:51;3.75;;;2.30;;
41677;SDS011;27364;49.026;8.712;2022-07-29T09:54:45;6.15;;;2.13;;
41677;SDS011;27364;49.026;8.712;2022-07-29T09:57:21;5.30;;;2.78;;
41677;SDS011;27364;49.026;8.712;2022-07-29T10:00:00;6.03;;;2.65;;
41677;SDS011;27364;49.026;8.712;2022-07-29T10:02:31;6.43;;;2.75;;
41677;SDS011;27364;49.026;8.712;2022-07-29T10:04:59;4.90;;;2.53;;
41677;SDS011;27364;49.026;8.712;2022-07-29T10:07:26;4.80;;;2.83;;
41677;SDS011;27364;49.026;8.712;2022-07-29T10:10:07;4.70;;;2.47;;
41677;SDS011;27364;49.026;8.712;2022-07-29T10:12:33;7.57;;;2.75;;
41677;SDS011;27364;49.026;8.712;2022-07-29T10:14:59;7.38;;;2.65;;
41677;SDS011;27364;49.026;8.712;2022-07-29T10:17:27;8.30;;;2.50;;
41677;SDS011;27364;49.026;8.712;2022-07-29T10:19:53;6.57;;;2.37;;
41677;SDS011;27364;49.026;8.712;2022-07-29T10:22:19;5.20;;;2.45;;
41677;SDS011;27364;49.026;8.712;2022-07-29T10:24:45;5.00;;;2.45;;
41677;SDS011;27364;49.026;8.712;2022-07-29T10:27:11;5.47;;;2.60;;
41677;SDS011;27364;49.026;8.712;2022-07-29T10:29:37;3.88;;;2.25;;
41677;SDS011;27364;49.026;8.712;2022-07-29T10:32:08;3.75;;;2.70;;
41677;SDS011;27364;49.026;8.712;2022-07-29T10:40:27;4.68;;;2.50;;
41677;SDS011;27364;49.026;8.712;2022-07-29T10:43:21;3.80;;;2.53;;
41677;SDS011;27364;49.026;8.712;2022-07-29T10:45:59;4.45;;;2.60;;
41677;SDS011;27364;49.026;8.712;2022-07-29T10:48:25;5.78;;;2.30;;
41677;SDS011;27364;49.026;8.712;2022-07-29T10:50:55;4.55;;;2.33;;
41677;SDS011;27364;49.026;8.712;2022-07-29T11:01:44;6.40;;;2.65;;
41677;SDS011;27364;49.026;8.712;2022-07-29T11:04:14;6.45;;;2.30;;
41677;SDS011;27364;49.026;8.712;2022-07-29T11:09:27;5.20;;;2.45;;
41677;SDS011;27364;49.026;8.712;2022-07-29T11:11:55;5.22;;;2.30;;
41677;SDS011;27364;49.026;8.712;2022-07-29T11:17:24;3.97;;;2.30;;
41677;SDS011;27364;49.026;8.712;2022-07-29T11:19:50;3.88;;;2.47;;
41677;SDS011;27364;49.026;8.712;2022-07-29T11:22:32;3.53;;;2.40;;
41677;SDS011;27364;49.026;8.712;2022-07-29T11:25:14;4.07;;;2.50;;
41677;SDS011;27364;49.026;8.712;2022-07-29T11:27:40;3.75;;;2.55;;
41677;SDS011;27364;49.026;8.712;2022-07-29T11:30:06;3.50;;;2.17;;
41677;SDS011;27364;49.026;8.712;2022-07-29T11:32:38;3.20;;;2.03;;
41677;SDS011;27364;49.026;8.712;2022-07-29T11:43:57;3.60;;;2.30;;
41677;SDS011;27364;49.026;8.712;2022-07-29T11:46:44;3.60;;;2.08;;
41677;SDS011;27364;49.026;8.712;2022-07-29T11:49:20;4.93;;;2.08;;
41677;SDS011;27364;49.026;8.712;2022-07-29T11:51:54;4.72;;;2.70;;
41677;SDS011;27364;49.026;8.712;2022-07-29T11:54:30;8.25;;;2.55;;
41677;SDS011;27364;49.026;8.712;2022-07-29T11:56:58;5.30;;;2.40;;
41677;SDS011;27364;49.026;8.712;2022-07-29T11:59:24;4.68;;;2.70;;
41677;SDS011;27364;49.026;8.712;2022-07-29T12:01:57;5.20;;;2.30;;
41677;SDS011;27364;49.026;8.712;2022-07-29T12:04:24;3.83;;;2.40;;
41677;SDS011;27364;49.026;8.712;2022-07-29T12:09:18;4.97;;;2.75;;
41677;SDS011;27364;49.026;8.712;2022-07-29T12:11:45;3.88;;;2.20;;
41677;SDS011;27364;49.026;8.712;2022-07-29T12:19:52;3.85;;;2.50;;
41677;SDS011;27364;49.026;8.712;2022-07-29T12:22:28;3.63;;;2.50;;
41677;SDS011;27364;49.026;8.712;2022-07-29T12:25:05;2.95;;;2.20;;
41677;SDS011;27364;49.026;8.712;2022-07-29T12:27:34;5.10;;;2.40;;
41677;SDS011;27364;49.026;8.712;2022-07-29T12:30:00;5.82;;;2.30;;
41677;SDS011;27364;49.026;8.712;2022-07-29T12:32:37;4.40;;;2.10;;
41677;SDS011;27364;49.026;8.712;2022-07-29T12:35:05;7.22;;;2.40;;
41677;SDS011;27364;49.026;8.712;2022-07-29T12:37:33;4.40;;;2.33;;
41677;SDS011;27364;49.026;8.712;2022-07-29T12:40:00;5.10;;;2.45;;
41677;SDS011;27364;49.026;8.712;2022-07-29T12:42:27;3.50;;;2.03;;
41677;SDS011;27364;49.026;8.712;2022-07-29T12:44:53;5.55;;;2.35;;
41677;SDS011;27364;49.026;8.712;2022-07-29T12:47:18;4.30;;;2.47;;
41677;SDS011;27364;49.026;8.712;2022-07-29T12:49:45;10.55;;;2.53;;
41677;SDS011;27364;49.026;8.712;2022-07-29T12:52:25;3.63;;;2.30;;
41677;SDS011;27364;49.026;8.712;2022-07-29T12:54:52;3.78;;;2.13;;
41677;SDS011;27364;49.026;8.712;2022-07-29T12:57:17;2.83;;;2.10;;
41677;SDS011;27364;49.026;8.712;2022-07-29T12:59:43;3.63;;;2.33;;
41677;SDS011;27364;49.026;8.712;2022-07-29T13:02:20;5.28;;;2.60;;
41677;SDS011;27364;49.026;8.712;2022-07-29T13:04:56;5.32;;;2.60;;
41677;SDS011;27364;49.026;8.712;2022-07-29T13:07:24;3.30;;;1.92;;
41677;SDS011;27364;49.026;8.712;2022-07-29T13:09:52;5.55;;;2.40;;
41677;SDS011;27364;49.026;8.712;2022-07-29T13:12:18;5.88;;;2.17;;
41677;SDS011;27364;49.026;8.712;2022-07-29T13:14:46;3.45;;;2.00;;
41677;SDS011;27364;49.026;8.712;2022-07-29T13:17:14;3.90;;;1.90;;
41677;SDS011;27364;49.026;8.712;2022-07-29T13:19:52;4.68;;;2.35;;
41677;SDS011;27364;49.026;8.712;2022-07-29T13:22:29;3.72;;;2.22;;
41677;SDS011;27364;49.026;8.712;2022-07-29T13:24:55;3.53;;;2.17;;
41677;SDS011;27364;49.026;8.712;2022-07-29T13:27:25;5.25;;;2.00;;
41677;SDS011;27364;49.026;8.712;2022-07-29T13:29:52;3.55;;;2.10;;
41677;SDS011;27364;49.026;8.712;2022-07-29T13:32:21;4.32;;;1.95;;
41677;SDS011;27364;49.026;8.712;2022-07-29T13:34:47;4.68;;;1.90;;
41677;SDS011;27364;49.026;8.712;2022-07-29T13:37:13;4.28;;;1.95;;
41677;SDS011;27364;49.026;8.712;2022-07-29T13:39:39;4.07;;;2.00;;
41677;SDS011;27364;49.026;8.712;2022-07-29T13:42:04;4.45;;;1.77;;
41677;SDS011;27364;49.026;8.712;2022-07-29T13:44:32;4.07;;;1.75;;
41677;SDS011;27364;49.026;8.712;2022-07-29T13:46:58;4.15;;;2.08;;
41677;SDS011;27364;49.026;8.712;2022-07-29T13:49:24;3.88;;;1.75;;
41677;SDS011;27364;49.026;8.712;2022-07-29T13:51:49;2.72;;;1.73;;
41677;SDS011;27364;49.026;8.712;2022-07-29T13:54:15;3.15;;;1.80;;
41677;SDS011;27364;49.026;8.712;2022-07-29T13:56:41;5.00;;;1.80;;
41677;SDS011;27364;49.026;8.712;2022-07-29T13:59:06;4.13;;;2.03;;
41677;SDS011;27364;49.026;8.712;2022-07-29T14:01:34;2.92;;;1.73;;
41677;SDS011;27364;49.026;8.712;2022-07-29T14:06:25;3.78;;;1.75;;
41677;SDS011;27364;49.026;8.712;2022-07-29T14:08:51;2.97;;;1.58;;
41677;SDS011;27364;49.026;8.712;2022-07-29T14:11:16;4.47;;;1.67;;
41677;SDS011;27364;49.026;8.712;2022-07-29T14:13:42;4.95;;;1.60;;
41677;SDS011;27364;49.026;8.712;2022-07-29T14:16:08;3.45;;;1.90;;
41677;SDS011;27364;49.026;8.712;2022-07-29T14:18:33;3.65;;;1.65;;
41677;SDS011;27364;49.026;8.712;2022-07-29T14:20:59;3.85;;;1.80;;
41677;SDS011;27364;49.026;8.712;2022-07-29T14:23:24;5.75;;;1.58;;
41677;SDS011;27364;49.026;8.712;2022-07-29T14:25:50;2.30;;;1.45;;
41677;SDS011;27364;49.026;8.712;2022-07-29T14:28:16;4.07;;;1.50;;
41677;SDS011;27364;49.026;8.712;2022-07-29T14:30:41;3.15;;;1.55;;
41677;SDS011;27364;49.026;8.712;2022-07-29T14:33:08;4.35;;;1.42;;
41677;SDS011;27364;49.026;8.712;2022-07-29T14:35:33;10.85;;;1.58;;
41677;SDS011;27364;49.026;8.712;2022-07-29T14:37:59;3.60;;;1.60;;
41677;SDS011;27364;49.026;8.712;2022-07-29T14:40:24;4.55;;;1.75;;
41677;SDS011;27364;49.026;8.712;2022-07-29T14:42:50;2.38;;;1.55;;
41677;SDS011;27364;49.026;8.712;2022-07-29T14:45:16;2.28;;;1.52;;
41677;SDS011;27364;49.026;8.712;2022-07-29T14:47:42;4.45;;;1.55;;
41677;SDS011;27364;49.026;8.712;2022-07-29T14:50:08;3.63;;;1.60;;
41677;SDS011;27364;49.026;8.712;2022-07-29T14:52:34;3.28;;;1.58;;
41677;SDS011;27364;49.026;8.712;2022-07-29T14:54:59;3.10;;;1.67;;
41677;SDS011;27364;49.026;8.712;2022-07-29T14:57:25;3.15;;;1.70;;
41677;SDS011;27364;49.026;8.712;2022-07-29T14:59:51;4.55;;;2.55;;
41677;SDS011;27364;49.026;8.712;2022-07-29T15:02:16;4.60;;;1.90;;
41677;SDS011;27364;49.026;8.712;2022-07-29T15:04:42;4.75;;;1.90;;
41677;SDS011;27364;49.026;8.712;2022-07-29T15:07:09;2.92;;;1.55;;
41677;SDS011;27364;49.026;8.712;2022-07-29T15:09:34;4.40;;;1.40;;
41677;SDS011;27364;49.026;8.712;2022-07-29T15:12:00;5.55;;;1.60;;
41677;SDS011;27364;49.026;8.712;2022-07-29T15:14:27;3.38;;;1.50;;
41677;SDS011;27364;49.026;8.712;2022-07-29T15:16:53;2.75;;;1.35;;
41677;SDS011;27364;49.026;8.712;2022-07-29T15:19:19;4.55;;;1.90;;
41677;SDS011;27364;49.026;8.712;2022-07-29T15:21:44;2.85;;;1.52;;
41677;SDS011;27364;49.026;8.712;2022-07-29T15:24:10;6.32;;;1.65;;
41677;SDS011;27364;49.026;8.712;2022-07-29T15:26:35;3.35;;;1.67;;
41677;SDS011;27364;49.026;8.712;2022-07-29T15:29:01;3.42;;;1.70;;
41677;SDS011;27364;49.026;8.712;2022-07-29T15:31:26;4.50;;;1.63;;
41677;SDS011;27364;49.026;8.712;2022-07-29T15:33:52;4.07;;;1.42;;
41677;SDS011;27364;49.026;8.712;2022-07-29T15:36:17;5.18;;;1.92;;
41677;SDS011;27364;49.026;8.712;2022-07-29T15:38:43;4.38;;;1.60;;
41677;SDS011;27364;49.026;8.712;2022-07-29T15:41:12;4.93;;;1.42;;
41677;SDS011;27364;49.026;8.712;2022-07-29T15:43:40;2.78;;;1.65;;
41677;SDS011;27364;49.026;8.712;2022-07-29T15:46:08;3.28;;;1.40;;
41677;SDS011;27364;49.026;8.712;2022-07-29T15:48:55;3.53;;;1.52;;
41677;SDS011;27364;49.026;8.712;2022-07-29T15:51:21;3.15;;;1.42;;
41677;SDS011;27364;49.026;8.712;2022-07-29T15:53:47;3.17;;;1.60;;